sensor_id;sensor_type;location;lat;lon;timestamp;P1;durP1;ratioP1;P2;durP2;ratioP2
65477;SDS011;53678;39.642;22.430;2024-01-25T00:00:19;114.88;;;54.97;;
65477;SDS011;53678;39.642;22.430;2024-01-25T00:02:49;98.50;;;49.75;;
65477;SDS011;53678;39.642;22.430;2024-01-25T00:05:15;104.13;;;49.70;;
65477;SDS011;53678;39.642;22.430;2024-01-25T00:07:47;102.78;;;49.50;;
65477;SDS011;53678;39.642;22.430;2024-01-25T00:10:14;90.43;;;45.88;;
65477;SDS011;53678;39.642;22.430;2024-01-25T00:12:42;97.22;;;46.47;;
65477;SDS011;53678;39.642;22.430;2024-01-25T00:15:08;90.28;;;45.63;;
65477;SDS011;53678;39.642;22.430;2024-01-25T00:17:35;81.72;;;42.10;;
65477;SDS011;53678;39.642;22.430;2024-01-25T00:20:01;99.47;;;48.47;;
65477;SDS011;53678;39.642;22.430;2024-01-25T00:22:30;102.45;;;45.47;;
65477;SDS011;53678;39.642;22.430;2024-01-25T00:24:55;103.70;;;48.88;;
65477;SDS011;53678;39.642;22.430;2024-01-25T00:27:21;86.15;;;45.38;;
65477;SDS011;53678;39.642;22.430;2024-01-25T00:29:47;78.88;;;41.25;;
65477;SDS011;53678;39.642;22.430;2024-01-25T00:32:12;86.35;;;42.50;;
65477;SDS011;53678;39.642;22.430;2024-01-25T00:34:39;81.80;;;42.78;;
65477;SDS011;53678;39.642;22.430;2024-01-25T00:37:05;86.07;;;41.08;;
65477;SDS011;53678;39.642;22.430;2024-01-25T00:39:31;84.15;;;41.17;;
65477;SDS011;53678;39.642;22.430;2024-01-25T00:42:03;79.13;;;38.58;;
65477;SDS011;53678;39.642;22.430;2024-01-25T00:46:57;88.82;;;44.92;;
65477;SDS011;53678;39.642;22.430;2024-01-25T00:49:24;72.45;;;37.85;;
65477;SDS011;53678;39.642;22.430;2024-01-25T00:51:50;77.40;;;38.05;;
65477;SDS011;53678;39.642;22.430;2024-01-25T00:54:25;82.15;;;39.25;;
65477;SDS011;53678;39.642;22.430;2024-01-25T00:56:51;79.10;;;39.17;;
65477;SDS011;53678;39.642;22.430;2024-01-25T00:59:18;78.47;;;36.72;;
65477;SDS011;53678;39.642;22.430;2024-01-25T01:01:46;69.65;;;37.15;;
65477;SDS011;53678;39.642;22.430;2024-01-25T01:04:13;70.68;;;36.30;;
65477;SDS011;53678;39.642;22.430;2024-01-25T01:06:42;72.07;;;35.50;;
65477;SDS011;53678;39.642;22.430;2024-01-25T01:09:08;66.72;;;32.70;;
65477;SDS011;53678;39.642;22.430;2024-01-25T01:11:34;67.47;;;32.50;;
65477;SDS011;53678;39.642;22.430;2024-01-25T01:14:01;75.60;;;38.22;;
65477;SDS011;53678;39.642;22.430;2024-01-25T01:16:31;65.00;;;34.35;;
65477;SDS011;53678;39.642;22.430;2024-01-25T01:18:58;68.88;;;32.13;;
65477;SDS011;53678;39.642;22.430;2024-01-25T01:21:32;68.80;;;33.88;;
65477;SDS011;53678;39.642;22.430;2024-01-25T01:23:58;67.25;;;31.02;;
65477;SDS011;53678;39.642;22.430;2024-01-25T01:26:24;61.97;;;32.53;;
65477;SDS011;53678;39.642;22.430;2024-01-25T01:28:50;67.38;;;33.92;;
65477;SDS011;53678;39.642;22.430;2024-01-25T01:31:16;68.47;;;33.80;;
65477;SDS011;53678;39.642;22.430;2024-01-25T01:33:41;57.95;;;31.75;;
65477;SDS011;53678;39.642;22.430;2024-01-25T01:36:08;62.55;;;32.45;;
65477;SDS011;53678;39.642;22.430;2024-01-25T01:38:34;65.95;;;33.92;;
65477;SDS011;53678;39.642;22.430;2024-01-25T01:40:59;60.72;;;34.08;;
65477;SDS011;53678;39.642;22.430;2024-01-25T01:43:25;67.95;;;35.55;;
65477;SDS011;53678;39.642;22.430;2024-01-25T01:45:51;85.85;;;43.00;;
65477;SDS011;53678;39.642;22.430;2024-01-25T01:48:17;85.10;;;42.10;;
65477;SDS011;53678;39.642;22.430;2024-01-25T01:50:42;77.00;;;42.15;;
65477;SDS011;53678;39.642;22.430;2024-01-25T01:53:10;83.50;;;41.78;;
65477;SDS011;53678;39.642;22.430;2024-01-25T01:55:36;76.90;;;42.90;;
65477;SDS011;53678;39.642;22.430;2024-01-25T01:58:02;86.75;;;40.25;;
65477;SDS011;53678;39.642;22.430;2024-01-25T02:00:29;62.25;;;32.67;;
65477;SDS011;53678;39.642;22.430;2024-01-25T02:02:58;69.50;;;34.00;;
65477;SDS011;53678;39.642;22.430;2024-01-25T02:05:25;51.60;;;28.33;;
65477;SDS011;53678;39.642;22.430;2024-01-25T02:07:51;56.45;;;29.50;;
65477;SDS011;53678;39.642;22.430;2024-01-25T02:10:17;55.05;;;31.55;;
65477;SDS011;53678;39.642;22.430;2024-01-25T02:12:43;62.83;;;30.08;;
65477;SDS011;53678;39.642;22.430;2024-01-25T02:15:09;65.93;;;35.38;;
65477;SDS011;53678;39.642;22.430;2024-01-25T02:17:35;65.65;;;34.45;;
65477;SDS011;53678;39.642;22.430;2024-01-25T02:20:01;64.97;;;34.22;;
65477;SDS011;53678;39.642;22.430;2024-01-25T02:22:28;58.80;;;33.13;;
65477;SDS011;53678;39.642;22.430;2024-01-25T02:24:54;63.70;;;32.38;;
65477;SDS011;53678;39.642;22.430;2024-01-25T02:27:20;55.00;;;29.83;;
65477;SDS011;53678;39.642;22.430;2024-01-25T02:29:45;48.38;;;25.70;;
65477;SDS011;53678;39.642;22.430;2024-01-25T02:32:11;57.95;;;29.77;;
65477;SDS011;53678;39.642;22.430;2024-01-25T02:34:37;60.20;;;31.55;;
65477;SDS011;53678;39.642;22.430;2024-01-25T02:37:02;48.33;;;26.13;;
65477;SDS011;53678;39.642;22.430;2024-01-25T02:39:28;46.75;;;23.65;;
65477;SDS011;53678;39.642;22.430;2024-01-25T02:41:54;40.30;;;22.65;;
65477;SDS011;53678;39.642;22.430;2024-01-25T02:44:20;62.85;;;32.90;;
65477;SDS011;53678;39.642;22.430;2024-01-25T02:46:45;51.85;;;29.45;;
65477;SDS011;53678;39.642;22.430;2024-01-25T02:49:12;66.32;;;32.22;;
65477;SDS011;53678;39.642;22.430;2024-01-25T02:51:37;65.15;;;31.23;;
65477;SDS011;53678;39.642;22.430;2024-01-25T02:54:03;61.13;;;32.63;;
65477;SDS011;53678;39.642;22.430;2024-01-25T02:56:31;57.03;;;29.25;;
65477;SDS011;53678;39.642;22.430;2024-01-25T02:59:00;60.63;;;28.48;;
65477;SDS011;53678;39.642;22.430;2024-01-25T03:01:36;51.28;;;26.65;;
65477;SDS011;53678;39.642;22.430;2024-01-25T03:04:03;42.83;;;22.55;;
65477;SDS011;53678;39.642;22.430;2024-01-25T03:06:28;38.28;;;21.75;;
65477;SDS011;53678;39.642;22.430;2024-01-25T03:08:54;43.95;;;20.85;;
65477;SDS011;53678;39.642;22.430;2024-01-25T03:11:20;42.22;;;20.38;;
65477;SDS011;53678;39.642;22.430;2024-01-25T03:13:45;42.60;;;21.88;;
65477;SDS011;53678;39.642;22.430;2024-01-25T03:16:11;40.50;;;22.17;;
65477;SDS011;53678;39.642;22.430;2024-01-25T03:18:37;39.47;;;22.17;;
65477;SDS011;53678;39.642;22.430;2024-01-25T03:21:02;47.55;;;24.65;;
65477;SDS011;53678;39.642;22.430;2024-01-25T03:23:30;43.28;;;24.23;;
65477;SDS011;53678;39.642;22.430;2024-01-25T03:25:55;38.88;;;21.67;;
65477;SDS011;53678;39.642;22.430;2024-01-25T03:28:22;33.53;;;19.52;;
65477;SDS011;53678;39.642;22.430;2024-01-25T03:30:47;40.50;;;20.00;;
65477;SDS011;53678;39.642;22.430;2024-01-25T03:33:13;40.33;;;20.48;;
65477;SDS011;53678;39.642;22.430;2024-01-25T03:35:39;43.28;;;19.88;;
65477;SDS011;53678;39.642;22.430;2024-01-25T03:38:05;45.53;;;22.00;;
65477;SDS011;53678;39.642;22.430;2024-01-25T03:40:31;40.67;;;21.13;;
65477;SDS011;53678;39.642;22.430;2024-01-25T03:42:56;39.95;;;20.75;;
65477;SDS011;53678;39.642;22.430;2024-01-25T03:45:22;40.63;;;21.50;;
65477;SDS011;53678;39.642;22.430;2024-01-25T03:47:48;44.88;;;21.65;;
65477;SDS011;53678;39.642;22.430;2024-01-25T03:50:13;55.58;;;24.30;;
65477;SDS011;53678;39.642;22.430;2024-01-25T03:52:39;60.50;;;27.70;;
65477;SDS011;53678;39.642;22.430;2024-01-25T03:55:05;63.60;;;27.83;;
65477;SDS011;53678;39.642;22.430;2024-01-25T03:57:32;49.88;;;24.80;;
65477;SDS011;53678;39.642;22.430;2024-01-25T03:59:57;56.17;;;27.08;;
65477;SDS011;53678;39.642;22.430;2024-01-25T04:02:23;64.20;;;30.30;;
65477;SDS011;53678;39.642;22.430;2024-01-25T04:04:49;51.97;;;28.92;;
65477;SDS011;53678;39.642;22.430;2024-01-25T04:07:16;54.55;;;29.92;;
65477;SDS011;53678;39.642;22.430;2024-01-25T04:09:42;51.22;;;26.30;;
65477;SDS011;53678;39.642;22.430;2024-01-25T04:12:07;67.28;;;29.90;;
65477;SDS011;53678;39.642;22.430;2024-01-25T04:14:33;56.08;;;29.58;;
65477;SDS011;53678;39.642;22.430;2024-01-25T04:16:59;57.70;;;28.73;;
65477;SDS011;53678;39.642;22.430;2024-01-25T04:19:25;54.92;;;27.48;;
65477;SDS011;53678;39.642;22.430;2024-01-25T04:21:52;47.47;;;22.92;;
65477;SDS011;53678;39.642;22.430;2024-01-25T04:24:18;42.00;;;22.13;;
65477;SDS011;53678;39.642;22.430;2024-01-25T04:26:44;48.53;;;23.70;;
65477;SDS011;53678;39.642;22.430;2024-01-25T04:29:10;45.60;;;22.98;;
65477;SDS011;53678;39.642;22.430;2024-01-25T04:31:41;45.22;;;22.85;;
65477;SDS011;53678;39.642;22.430;2024-01-25T04:34:08;50.20;;;22.83;;
65477;SDS011;53678;39.642;22.430;2024-01-25T04:36:34;52.70;;;24.95;;
65477;SDS011;53678;39.642;22.430;2024-01-25T04:39:00;69.03;;;24.75;;
65477;SDS011;53678;39.642;22.430;2024-01-25T04:41:26;55.35;;;22.55;;
65477;SDS011;53678;39.642;22.430;2024-01-25T04:43:52;47.80;;;23.08;;
65477;SDS011;53678;39.642;22.430;2024-01-25T04:46:18;38.38;;;21.50;;
65477;SDS011;53678;39.642;22.430;2024-01-25T04:48:44;53.42;;;23.77;;
65477;SDS011;53678;39.642;22.430;2024-01-25T04:51:16;50.70;;;24.88;;
65477;SDS011;53678;39.642;22.430;2024-01-25T04:53:43;54.05;;;25.95;;
65477;SDS011;53678;39.642;22.430;2024-01-25T04:56:09;69.75;;;30.10;;
65477;SDS011;53678;39.642;22.430;2024-01-25T04:58:35;67.07;;;31.23;;
65477;SDS011;53678;39.642;22.430;2024-01-25T05:01:00;79.35;;;30.35;;
65477;SDS011;53678;39.642;22.430;2024-01-25T05:03:28;56.50;;;25.95;;
65477;SDS011;53678;39.642;22.430;2024-01-25T05:05:53;58.08;;;27.35;;
65477;SDS011;53678;39.642;22.430;2024-01-25T05:08:19;61.08;;;27.83;;
65477;SDS011;53678;39.642;22.430;2024-01-25T05:10:45;47.47;;;24.30;;
65477;SDS011;53678;39.642;22.430;2024-01-25T05:13:11;60.38;;;28.02;;
65477;SDS011;53678;39.642;22.430;2024-01-25T05:15:38;53.25;;;26.30;;
65477;SDS011;53678;39.642;22.430;2024-01-25T05:18:05;55.92;;;27.80;;
65477;SDS011;53678;39.642;22.430;2024-01-25T05:20:31;70.22;;;28.98;;
65477;SDS011;53678;39.642;22.430;2024-01-25T05:23:04;66.53;;;31.40;;
65477;SDS011;53678;39.642;22.430;2024-01-25T05:25:30;68.82;;;28.98;;
65477;SDS011;53678;39.642;22.430;2024-01-25T05:27:56;57.17;;;28.15;;
65477;SDS011;53678;39.642;22.430;2024-01-25T05:30:23;49.97;;;25.58;;
65477;SDS011;53678;39.642;22.430;2024-01-25T05:32:49;61.10;;;26.50;;
65477;SDS011;53678;39.642;22.430;2024-01-25T05:35:15;68.15;;;26.35;;
65477;SDS011;53678;39.642;22.430;2024-01-25T05:37:42;55.80;;;25.20;;
65477;SDS011;53678;39.642;22.430;2024-01-25T05:40:08;57.92;;;30.70;;
65477;SDS011;53678;39.642;22.430;2024-01-25T05:42:36;92.55;;;37.08;;
65477;SDS011;53678;39.642;22.430;2024-01-25T05:45:02;67.70;;;29.23;;
65477;SDS011;53678;39.642;22.430;2024-01-25T05:47:29;61.17;;;31.08;;
65477;SDS011;53678;39.642;22.430;2024-01-25T05:49:56;86.88;;;42.03;;
65477;SDS011;53678;39.642;22.430;2024-01-25T05:52:23;97.18;;;45.50;;
65477;SDS011;53678;39.642;22.430;2024-01-25T05:54:50;65.65;;;32.08;;
65477;SDS011;53678;39.642;22.430;2024-01-25T05:57:16;69.07;;;28.65;;
65477;SDS011;53678;39.642;22.430;2024-01-25T05:59:45;58.38;;;26.58;;
65477;SDS011;53678;39.642;22.430;2024-01-25T06:02:11;49.88;;;22.65;;
65477;SDS011;53678;39.642;22.430;2024-01-25T06:04:37;57.05;;;25.50;;
65477;SDS011;53678;39.642;22.430;2024-01-25T06:07:03;35.75;;;20.80;;
65477;SDS011;53678;39.642;22.430;2024-01-25T06:09:40;49.75;;;20.70;;
65477;SDS011;53678;39.642;22.430;2024-01-25T06:12:09;40.70;;;21.80;;
65477;SDS011;53678;39.642;22.430;2024-01-25T06:14:35;46.35;;;20.20;;
65477;SDS011;53678;39.642;22.430;2024-01-25T06:17:01;54.75;;;19.67;;
65477;SDS011;53678;39.642;22.430;2024-01-25T06:19:26;48.85;;;22.58;;
65477;SDS011;53678;39.642;22.430;2024-01-25T06:21:53;56.42;;;24.45;;
65477;SDS011;53678;39.642;22.430;2024-01-25T06:24:20;32.15;;;18.30;;
65477;SDS011;53678;39.642;22.430;2024-01-25T06:26:46;46.13;;;17.40;;
65477;SDS011;53678;39.642;22.430;2024-01-25T06:29:11;24.02;;;13.48;;
65477;SDS011;53678;39.642;22.430;2024-01-25T06:31:43;41.28;;;21.55;;
65477;SDS011;53678;39.642;22.430;2024-01-25T06:34:09;63.55;;;23.15;;
65477;SDS011;53678;39.642;22.430;2024-01-25T06:36:36;75.97;;;29.67;;
65477;SDS011;53678;39.642;22.430;2024-01-25T06:39:02;55.22;;;26.63;;
65477;SDS011;53678;39.642;22.430;2024-01-25T06:41:30;65.15;;;27.83;;
65477;SDS011;53678;39.642;22.430;2024-01-25T06:43:55;57.42;;;26.35;;
65477;SDS011;53678;39.642;22.430;2024-01-25T06:46:23;52.65;;;23.98;;
65477;SDS011;53678;39.642;22.430;2024-01-25T06:48:50;57.90;;;25.08;;
65477;SDS011;53678;39.642;22.430;2024-01-25T06:51:16;45.60;;;22.40;;
65477;SDS011;53678;39.642;22.430;2024-01-25T06:53:42;44.28;;;22.65;;
65477;SDS011;53678;39.642;22.430;2024-01-25T06:56:07;42.40;;;21.20;;
65477;SDS011;53678;39.642;22.430;2024-01-25T06:58:33;51.63;;;21.63;;
65477;SDS011;53678;39.642;22.430;2024-01-25T07:00:59;38.88;;;20.17;;
65477;SDS011;53678;39.642;22.430;2024-01-25T07:03:27;40.38;;;18.95;;
65477;SDS011;53678;39.642;22.430;2024-01-25T07:05:52;48.78;;;21.92;;
65477;SDS011;53678;39.642;22.430;2024-01-25T07:08:18;49.58;;;19.98;;
65477;SDS011;53678;39.642;22.430;2024-01-25T07:10:47;30.80;;;17.38;;
65477;SDS011;53678;39.642;22.430;2024-01-25T07:13:12;42.95;;;21.08;;
65477;SDS011;53678;39.642;22.430;2024-01-25T07:15:38;39.85;;;16.73;;
65477;SDS011;53678;39.642;22.430;2024-01-25T07:18:04;50.40;;;18.67;;
65477;SDS011;53678;39.642;22.430;2024-01-25T07:20:30;38.63;;;18.05;;
65477;SDS011;53678;39.642;22.430;2024-01-25T07:22:56;40.38;;;18.67;;
65477;SDS011;53678;39.642;22.430;2024-01-25T07:25:22;33.97;;;18.10;;
65477;SDS011;53678;39.642;22.430;2024-01-25T07:27:47;34.88;;;17.65;;
65477;SDS011;53678;39.642;22.430;2024-01-25T07:30:14;42.47;;;19.95;;
65477;SDS011;53678;39.642;22.430;2024-01-25T07:32:41;45.22;;;20.83;;
65477;SDS011;53678;39.642;22.430;2024-01-25T07:35:09;48.92;;;21.88;;
65477;SDS011;53678;39.642;22.430;2024-01-25T07:37:38;39.30;;;19.15;;
65477;SDS011;53678;39.642;22.430;2024-01-25T07:40:10;38.00;;;19.15;;
65477;SDS011;53678;39.642;22.430;2024-01-25T07:42:36;49.15;;;22.05;;
65477;SDS011;53678;39.642;22.430;2024-01-25T07:45:02;47.50;;;22.55;;
65477;SDS011;53678;39.642;22.430;2024-01-25T07:47:28;41.60;;;21.52;;
65477;SDS011;53678;39.642;22.430;2024-01-25T07:49:55;37.42;;;21.00;;
65477;SDS011;53678;39.642;22.430;2024-01-25T07:52:20;36.85;;;20.83;;
65477;SDS011;53678;39.642;22.430;2024-01-25T07:54:46;49.42;;;25.60;;
65477;SDS011;53678;39.642;22.430;2024-01-25T07:57:12;45.35;;;25.27;;
65477;SDS011;53678;39.642;22.430;2024-01-25T07:59:38;48.38;;;26.58;;
65477;SDS011;53678;39.642;22.430;2024-01-25T08:02:09;57.75;;;28.25;;
65477;SDS011;53678;39.642;22.430;2024-01-25T08:04:34;57.05;;;28.88;;
65477;SDS011;53678;39.642;22.430;2024-01-25T08:07:00;65.95;;;33.42;;
65477;SDS011;53678;39.642;22.430;2024-01-25T08:09:28;67.53;;;31.17;;
65477;SDS011;53678;39.642;22.430;2024-01-25T08:11:53;78.60;;;33.78;;
65477;SDS011;53678;39.642;22.430;2024-01-25T08:14:21;70.75;;;32.00;;
65477;SDS011;53678;39.642;22.430;2024-01-25T08:16:47;56.50;;;30.65;;
65477;SDS011;53678;39.642;22.430;2024-01-25T08:19:12;64.28;;;32.35;;
65477;SDS011;53678;39.642;22.430;2024-01-25T08:21:38;64.88;;;33.45;;
65477;SDS011;53678;39.642;22.430;2024-01-25T08:24:04;62.45;;;30.50;;
65477;SDS011;53678;39.642;22.430;2024-01-25T08:26:29;64.88;;;30.60;;
65477;SDS011;53678;39.642;22.430;2024-01-25T08:28:55;70.85;;;32.55;;
65477;SDS011;53678;39.642;22.430;2024-01-25T08:31:24;66.32;;;31.50;;
65477;SDS011;53678;39.642;22.430;2024-01-25T08:33:49;69.20;;;34.38;;
65477;SDS011;53678;39.642;22.430;2024-01-25T08:36:17;69.57;;;34.05;;
65477;SDS011;53678;39.642;22.430;2024-01-25T08:38:44;72.88;;;33.25;;
65477;SDS011;53678;39.642;22.430;2024-01-25T08:41:10;67.32;;;32.25;;
65477;SDS011;53678;39.642;22.430;2024-01-25T08:43:36;54.17;;;30.70;;
65477;SDS011;53678;39.642;22.430;2024-01-25T08:46:02;58.97;;;31.52;;
65477;SDS011;53678;39.642;22.430;2024-01-25T08:48:29;63.85;;;32.58;;
65477;SDS011;53678;39.642;22.430;2024-01-25T08:50:55;63.67;;;31.10;;
65477;SDS011;53678;39.642;22.430;2024-01-25T08:53:21;55.85;;;32.33;;
65477;SDS011;53678;39.642;22.430;2024-01-25T08:55:52;58.38;;;33.22;;
65477;SDS011;53678;39.642;22.430;2024-01-25T08:58:18;66.63;;;35.30;;
65477;SDS011;53678;39.642;22.430;2024-01-25T09:00:45;66.40;;;32.65;;
65477;SDS011;53678;39.642;22.430;2024-01-25T09:03:11;59.78;;;32.03;;
65477;SDS011;53678;39.642;22.430;2024-01-25T09:05:36;63.65;;;33.35;;
65477;SDS011;53678;39.642;22.430;2024-01-25T09:08:06;85.40;;;36.85;;
65477;SDS011;53678;39.642;22.430;2024-01-25T09:10:32;66.75;;;33.85;;
65477;SDS011;53678;39.642;22.430;2024-01-25T09:12:58;65.72;;;34.35;;
65477;SDS011;53678;39.642;22.430;2024-01-25T09:15:23;65.05;;;31.23;;
65477;SDS011;53678;39.642;22.430;2024-01-25T09:17:49;60.00;;;30.48;;
65477;SDS011;53678;39.642;22.430;2024-01-25T09:20:15;70.28;;;31.17;;
65477;SDS011;53678;39.642;22.430;2024-01-25T09:22:43;54.80;;;32.72;;
65477;SDS011;53678;39.642;22.430;2024-01-25T09:25:09;55.40;;;32.13;;
65477;SDS011;53678;39.642;22.430;2024-01-25T09:27:35;58.47;;;31.05;;
65477;SDS011;53678;39.642;22.430;2024-01-25T09:30:02;62.88;;;31.42;;
65477;SDS011;53678;39.642;22.430;2024-01-25T09:32:27;55.20;;;31.45;;
65477;SDS011;53678;39.642;22.430;2024-01-25T09:34:53;62.97;;;32.80;;
65477;SDS011;53678;39.642;22.430;2024-01-25T09:37:20;59.45;;;31.92;;
65477;SDS011;53678;39.642;22.430;2024-01-25T09:39:49;53.72;;;31.80;;
65477;SDS011;53678;39.642;22.430;2024-01-25T09:42:14;57.80;;;31.63;;
65477;SDS011;53678;39.642;22.430;2024-01-25T09:44:42;61.00;;;32.35;;
65477;SDS011;53678;39.642;22.430;2024-01-25T09:47:08;63.75;;;31.40;;
65477;SDS011;53678;39.642;22.430;2024-01-25T09:49:35;65.45;;;34.97;;
65477;SDS011;53678;39.642;22.430;2024-01-25T09:52:04;64.03;;;36.95;;
65477;SDS011;53678;39.642;22.430;2024-01-25T09:54:34;88.18;;;41.20;;
65477;SDS011;53678;39.642;22.430;2024-01-25T09:57:02;59.90;;;33.35;;
65477;SDS011;53678;39.642;22.430;2024-01-25T09:59:31;54.63;;;29.08;;
65477;SDS011;53678;39.642;22.430;2024-01-25T10:01:57;42.45;;;24.52;;
65477;SDS011;53678;39.642;22.430;2024-01-25T10:04:26;34.58;;;18.35;;
65477;SDS011;53678;39.642;22.430;2024-01-25T10:06:55;26.63;;;15.23;;
65477;SDS011;53678;39.642;22.430;2024-01-25T10:09:21;34.08;;;17.75;;
65477;SDS011;53678;39.642;22.430;2024-01-25T10:11:48;25.48;;;13.30;;
65477;SDS011;53678;39.642;22.430;2024-01-25T10:14:14;24.60;;;13.27;;
65477;SDS011;53678;39.642;22.430;2024-01-25T10:16:40;19.55;;;11.95;;
65477;SDS011;53678;39.642;22.430;2024-01-25T10:19:06;21.05;;;10.10;;
65477;SDS011;53678;39.642;22.430;2024-01-25T10:21:35;16.17;;;9.63;;
65477;SDS011;53678;39.642;22.430;2024-01-25T10:24:02;18.73;;;10.05;;
65477;SDS011;53678;39.642;22.430;2024-01-25T10:26:28;18.80;;;10.70;;
65477;SDS011;53678;39.642;22.430;2024-01-25T10:28:55;21.00;;;11.15;;
65477;SDS011;53678;39.642;22.430;2024-01-25T10:31:24;18.73;;;9.55;;
65477;SDS011;53678;39.642;22.430;2024-01-25T10:34:11;15.52;;;8.23;;
65477;SDS011;53678;39.642;22.430;2024-01-25T10:36:40;18.60;;;8.50;;
65477;SDS011;53678;39.642;22.430;2024-01-25T10:39:07;13.13;;;7.10;;
65477;SDS011;53678;39.642;22.430;2024-01-25T10:41:34;15.70;;;8.30;;
65477;SDS011;53678;39.642;22.430;2024-01-25T10:44:00;14.57;;;7.65;;
65477;SDS011;53678;39.642;22.430;2024-01-25T10:46:28;12.70;;;7.38;;
65477;SDS011;53678;39.642;22.430;2024-01-25T10:48:58;18.70;;;7.82;;
65477;SDS011;53678;39.642;22.430;2024-01-25T10:51:24;10.82;;;6.45;;
65477;SDS011;53678;39.642;22.430;2024-01-25T10:53:52;14.18;;;7.15;;
65477;SDS011;53678;39.642;22.430;2024-01-25T10:56:18;20.60;;;9.65;;
65477;SDS011;53678;39.642;22.430;2024-01-25T10:58:44;16.33;;;7.75;;
65477;SDS011;53678;39.642;22.430;2024-01-25T11:01:10;16.63;;;7.88;;
65477;SDS011;53678;39.642;22.430;2024-01-25T11:03:36;20.13;;;8.13;;
65477;SDS011;53678;39.642;22.430;2024-01-25T11:06:10;16.10;;;8.02;;
65477;SDS011;53678;39.642;22.430;2024-01-25T11:08:37;18.80;;;8.93;;
65477;SDS011;53678;39.642;22.430;2024-01-25T11:11:08;15.82;;;8.43;;
65477;SDS011;53678;39.642;22.430;2024-01-25T11:13:38;16.85;;;8.40;;
65477;SDS011;53678;39.642;22.430;2024-01-25T11:16:15;20.55;;;8.35;;
65477;SDS011;53678;39.642;22.430;2024-01-25T11:18:54;17.85;;;7.68;;
65477;SDS011;53678;39.642;22.430;2024-01-25T11:21:40;15.15;;;8.10;;
65477;SDS011;53678;39.642;22.430;2024-01-25T11:24:16;14.57;;;8.63;;
65477;SDS011;53678;39.642;22.430;2024-01-25T11:26:51;17.42;;;8.60;;
65477;SDS011;53678;39.642;22.430;2024-01-25T11:29:21;13.18;;;7.22;;
65477;SDS011;53678;39.642;22.430;2024-01-25T11:32:07;14.35;;;7.63;;
65477;SDS011;53678;39.642;22.430;2024-01-25T11:34:39;14.32;;;7.47;;
65477;SDS011;53678;39.642;22.430;2024-01-25T11:37:05;13.70;;;8.07;;
65477;SDS011;53678;39.642;22.430;2024-01-25T11:39:31;18.88;;;7.35;;
65477;SDS011;53678;39.642;22.430;2024-01-25T11:41:57;15.05;;;6.55;;
65477;SDS011;53678;39.642;22.430;2024-01-25T11:44:23;11.82;;;8.00;;
65477;SDS011;53678;39.642;22.430;2024-01-25T11:46:53;20.08;;;8.55;;
65477;SDS011;53678;39.642;22.430;2024-01-25T11:49:19;15.73;;;7.75;;
65477;SDS011;53678;39.642;22.430;2024-01-25T11:51:45;20.67;;;7.57;;
65477;SDS011;53678;39.642;22.430;2024-01-25T11:54:13;13.30;;;7.15;;
65477;SDS011;53678;39.642;22.430;2024-01-25T11:56:39;16.83;;;8.43;;
65477;SDS011;53678;39.642;22.430;2024-01-25T11:59:06;23.88;;;9.73;;
65477;SDS011;53678;39.642;22.430;2024-01-25T12:01:32;13.10;;;7.00;;
65477;SDS011;53678;39.642;22.430;2024-01-25T12:04:00;19.10;;;8.57;;
65477;SDS011;53678;39.642;22.430;2024-01-25T12:06:26;14.35;;;9.00;;
65477;SDS011;53678;39.642;22.430;2024-01-25T12:08:52;14.73;;;7.38;;
65477;SDS011;53678;39.642;22.430;2024-01-25T12:11:20;13.32;;;7.75;;
65477;SDS011;53678;39.642;22.430;2024-01-25T12:13:48;16.20;;;10.27;;
65477;SDS011;53678;39.642;22.430;2024-01-25T12:16:14;11.55;;;8.07;;
65477;SDS011;53678;39.642;22.430;2024-01-25T12:18:41;12.32;;;7.30;;
65477;SDS011;53678;39.642;22.430;2024-01-25T12:21:09;34.00;;;16.25;;
65477;SDS011;53678;39.642;22.430;2024-01-25T12:23:35;19.70;;;9.10;;
65477;SDS011;53678;39.642;22.430;2024-01-25T12:26:06;16.38;;;8.60;;
65477;SDS011;53678;39.642;22.430;2024-01-25T12:28:33;14.52;;;8.65;;
65477;SDS011;53678;39.642;22.430;2024-01-25T12:31:00;13.00;;;7.75;;
65477;SDS011;53678;39.642;22.430;2024-01-25T12:33:27;12.18;;;7.28;;
65477;SDS011;53678;39.642;22.430;2024-01-25T12:35:53;11.48;;;7.18;;
65477;SDS011;53678;39.642;22.430;2024-01-25T12:38:22;15.25;;;8.27;;
65477;SDS011;53678;39.642;22.430;2024-01-25T12:40:51;11.95;;;7.20;;
65477;SDS011;53678;39.642;22.430;2024-01-25T12:43:19;21.27;;;10.77;;
65477;SDS011;53678;39.642;22.430;2024-01-25T12:45:48;10.80;;;6.97;;
65477;SDS011;53678;39.642;22.430;2024-01-25T12:48:15;15.75;;;7.30;;
65477;SDS011;53678;39.642;22.430;2024-01-25T12:50:44;14.82;;;7.13;;
65477;SDS011;53678;39.642;22.430;2024-01-25T12:53:11;12.57;;;7.00;;
65477;SDS011;53678;39.642;22.430;2024-01-25T12:55:37;11.35;;;7.43;;
65477;SDS011;53678;39.642;22.430;2024-01-25T12:58:03;12.50;;;7.00;;
65477;SDS011;53678;39.642;22.430;2024-01-25T13:00:29;9.15;;;6.20;;
65477;SDS011;53678;39.642;22.430;2024-01-25T13:02:55;13.38;;;7.30;;
65477;SDS011;53678;39.642;22.430;2024-01-25T13:05:22;11.43;;;7.40;;
65477;SDS011;53678;39.642;22.430;2024-01-25T13:07:48;10.70;;;7.15;;
65477;SDS011;53678;39.642;22.430;2024-01-25T13:10:14;12.60;;;5.22;;
65477;SDS011;53678;39.642;22.430;2024-01-25T13:12:41;12.02;;;7.65;;
65477;SDS011;53678;39.642;22.430;2024-01-25T13:15:07;10.40;;;4.88;;
65477;SDS011;53678;39.642;22.430;2024-01-25T13:17:36;15.90;;;6.97;;
65477;SDS011;53678;39.642;22.430;2024-01-25T13:20:05;14.95;;;5.68;;
65477;SDS011;53678;39.642;22.430;2024-01-25T13:22:32;13.73;;;6.88;;
65477;SDS011;53678;39.642;22.430;2024-01-25T13:24:59;8.45;;;5.35;;
65477;SDS011;53678;39.642;22.430;2024-01-25T13:27:26;8.95;;;5.68;;
65477;SDS011;53678;39.642;22.430;2024-01-25T13:29:52;12.13;;;5.68;;
65477;SDS011;53678;39.642;22.430;2024-01-25T13:32:19;11.30;;;6.45;;
65477;SDS011;53678;39.642;22.430;2024-01-25T13:34:48;13.63;;;6.47;;
65477;SDS011;53678;39.642;22.430;2024-01-25T13:37:13;14.85;;;6.95;;
65477;SDS011;53678;39.642;22.430;2024-01-25T13:39:40;10.25;;;6.07;;
65477;SDS011;53678;39.642;22.430;2024-01-25T13:42:06;12.30;;;5.70;;
65477;SDS011;53678;39.642;22.430;2024-01-25T13:44:33;9.02;;;5.32;;
65477;SDS011;53678;39.642;22.430;2024-01-25T13:46:59;14.13;;;6.32;;
65477;SDS011;53678;39.642;22.430;2024-01-25T13:49:24;21.38;;;11.95;;
65477;SDS011;53678;39.642;22.430;2024-01-25T13:51:50;19.52;;;10.05;;
65477;SDS011;53678;39.642;22.430;2024-01-25T13:54:16;26.10;;;10.05;;
65477;SDS011;53678;39.642;22.430;2024-01-25T13:56:42;22.42;;;7.70;;
65477;SDS011;53678;39.642;22.430;2024-01-25T13:59:08;23.58;;;7.30;;
65477;SDS011;53678;39.642;22.430;2024-01-25T14:01:35;18.75;;;6.95;;
65477;SDS011;53678;39.642;22.430;2024-01-25T14:04:02;10.23;;;4.68;;
65477;SDS011;53678;39.642;22.430;2024-01-25T14:06:30;11.35;;;5.25;;
65477;SDS011;53678;39.642;22.430;2024-01-25T14:08:56;14.18;;;5.80;;
65477;SDS011;53678;39.642;22.430;2024-01-25T14:11:23;10.35;;;5.10;;